sensor_id;sensor_type;location;lat;lon;timestamp;temperature;humidity
13744;DHT22;6943;52.368;9.966;2023-04-25T00:01:21;8.40;1.00
13744;DHT22;6943;52.368;9.966;2023-04-25T00:03:47;8.40;1.00
13744;DHT22;6943;52.368;9.966;2023-04-25T00:06:13;8.40;1.00
13744;DHT22;6943;52.368;9.966;2023-04-25T00:08:39;8.30;45.00
13744;DHT22;6943;52.368;9.966;2023-04-25T00:11:04;8.30;99.90
13744;DHT22;6943;52.368;9.966;2023-04-25T00:13:30;8.30;99.90
13744;DHT22;6943;52.368;9.966;2023-04-25T00:15:55;8.30;99.90
13744;DHT22;6943;52.368;9.966;2023-04-25T00:18:25;8.30;1.00
13744;DHT22;6943;52.368;9.966;2023-04-25T00:20:54;8.30;1.00
13744;DHT22;6943;52.368;9.966;2023-04-25T00:23:19;8.20;1.00
13744;DHT22;6943;52.368;9.966;2023-04-25T00:25:45;8.30;1.00
13744;DHT22;6943;52.368;9.966;2023-04-25T00:28:11;8.20;1.00
13744;DHT22;6943;52.368;9.966;2023-04-25T00:30:38;8.30;1.00
13744;DHT22;6943;52.368;9.966;2023-04-25T00:33:03;8.10;1.00
13744;DHT22;6943;52.368;9.966;2023-04-25T00:35:28;8.10;1.00
13744;DHT22;6943;52.368;9.966;2023-04-25T00:37:54;8.00;1.00
13744;DHT22;6943;52.368;9.966;2023-04-25T00:40:20;8.00;1.00
13744;DHT22;6943;52.368;9.966;2023-04-25T00:42:47;8.00;1.00
13744;DHT22;6943;52.368;9.966;2023-04-25T00:45:13;8.00;1.00
13744;DHT22;6943;52.368;9.966;2023-04-25T00:47:40;8.10;1.00
13744;DHT22;6943;52.368;9.966;2023-04-25T00:50:06;8.10;1.00
13744;DHT22;6943;52.368;9.966;2023-04-25T00:52:32;8.20;1.00
13744;DHT22;6943;52.368;9.966;2023-04-25T00:54:57;8.20;1.00
13744;DHT22;6943;52.368;9.966;2023-04-25T00:57:23;8.20;99.90
13744;DHT22;6943;52.368;9.966;2023-04-25T00:59:51;8.30;99.90
13744;DHT22;6943;52.368;9.966;2023-04-25T01:02:17;8.30;99.90
13744;DHT22;6943;52.368;9.966;2023-04-25T01:04:43;8.30;99.90
13744;DHT22;6943;52.368;9.966;2023-04-25T01:07:09;8.30;99.90
13744;DHT22;6943;52.368;9.966;2023-04-25T01:09:35;8.30;89.20
13744;DHT22;6943;52.368;9.966;2023-04-25T01:12:01;8.30;1.00
13744;DHT22;6943;52.368;9.966;2023-04-25T01:14:28;8.40;2.30
13744;DHT22;6943;52.368;9.966;2023-04-25T01:16:54;8.40;1.00
13744;DHT22;6943;52.368;9.966;2023-04-25T01:19:19;8.30;1.00
13744;DHT22;6943;52.368;9.966;2023-04-25T01:21:45;8.30;1.00
13744;DHT22;6943;52.368;9.966;2023-04-25T01:24:12;8.30;1.00
13744;DHT22;6943;52.368;9.966;2023-04-25T01:26:38;8.30;1.00
13744;DHT22;6943;52.368;9.966;2023-04-25T01:29:07;8.30;1.00
13744;DHT22;6943;52.368;9.966;2023-04-25T01:31:33;8.30;1.00
13744;DHT22;6943;52.368;9.966;2023-04-25T01:34:00;8.30;1.00
13744;DHT22;6943;52.368;9.966;2023-04-25T01:36:25;8.20;7.00
13744;DHT22;6943;52.368;9.966;2023-04-25T01:38:52;8.20;27.60
13744;DHT22;6943;52.368;9.966;2023-04-25T01:41:18;8.30;1.00
13744;DHT22;6943;52.368;9.966;2023-04-25T01:43:44;8.20;25.80
13744;DHT22;6943;52.368;9.966;2023-04-25T01:46:11;8.20;92.30
13744;DHT22;6943;52.368;9.966;2023-04-25T01:48:36;8.20;97.50
13744;DHT22;6943;52.368;9.966;2023-04-25T01:51:02;8.20;99.90
13744;DHT22;6943;52.368;9.966;2023-04-25T01:53:28;8.10;99.90
13744;DHT22;6943;52.368;9.966;2023-04-25T01:55:53;8.10;99.90
13744;DHT22;6943;52.368;9.966;2023-04-25T01:58:19;8.10;99.90
13744;DHT22;6943;52.368;9.966;2023-04-25T02:00:44;8.10;1.00
13744;DHT22;6943;52.368;9.966;2023-04-25T02:03:10;8.10;1.00
13744;DHT22;6943;52.368;9.966;2023-04-25T02:05:39;8.10;1.00
13744;DHT22;6943;52.368;9.966;2023-04-25T02:08:06;8.10;1.00
13744;DHT22;6943;52.368;9.966;2023-04-25T02:10:33;8.10;1.00
13744;DHT22;6943;52.368;9.966;2023-04-25T02:12:58;8.10;1.00
13744;DHT22;6943;52.368;9.966;2023-04-25T02:15:24;8.20;1.00
13744;DHT22;6943;52.368;9.966;2023-04-25T02:17:49;8.20;1.00
13744;DHT22;6943;52.368;9.966;2023-04-25T02:20:15;8.20;1.00
13744;DHT22;6943;52.368;9.966;2023-04-25T02:22:45;8.20;1.00
13744;DHT22;6943;52.368;9.966;2023-04-25T02:25:11;8.20;1.00
13744;DHT22;6943;52.368;9.966;2023-04-25T02:27:36;8.20;1.00
13744;DHT22;6943;52.368;9.966;2023-04-25T02:30:02;8.20;1.00
13744;DHT22;6943;52.368;9.966;2023-04-25T02:32:28;8.20;99.90
13744;DHT22;6943;52.368;9.966;2023-04-25T02:34:53;8.20;1.00
13744;DHT22;6943;52.368;9.966;2023-04-25T02:37:19;8.10;1.00
13744;DHT22;6943;52.368;9.966;2023-04-25T02:39:45;8.10;99.90
13744;DHT22;6943;52.368;9.966;2023-04-25T02:42:10;8.10;1.00
13744;DHT22;6943;52.368;9.966;2023-04-25T02:44:36;8.00;1.00
13744;DHT22;6943;52.368;9.966;2023-04-25T02:47:01;8.00;99.90
13744;DHT22;6943;52.368;9.966;2023-04-25T02:49:26;7.90;1.00
13744;DHT22;6943;52.368;9.966;2023-04-25T02:51:52;7.90;1.00
13744;DHT22;6943;52.368;9.966;2023-04-25T02:54:17;7.90;1.00
13744;DHT22;6943;52.368;9.966;2023-04-25T02:56:43;7.80;1.00
13744;DHT22;6943;52.368;9.966;2023-04-25T02:59:08;7.80;99.90
13744;DHT22;6943;52.368;9.966;2023-04-25T03:01:34;7.80;1.00
13744;DHT22;6943;52.368;9.966;2023-04-25T03:03:59;7.70;1.00
13744;DHT22;6943;52.368;9.966;2023-04-25T03:06:25;7.70;1.00
13744;DHT22;6943;52.368;9.966;2023-04-25T03:08:50;7.70;1.00
13744;DHT22;6943;52.368;9.966;2023-04-25T03:11:15;7.60;1.00
13744;DHT22;6943;52.368;9.966;2023-04-25T03:13:41;7.70;1.00
13744;DHT22;6943;52.368;9.966;2023-04-25T03:16:06;7.60;99.90
13744;DHT22;6943;52.368;9.966;2023-04-25T03:18:32;7.60;1.00
13744;DHT22;6943;52.368;9.966;2023-04-25T03:20:57;7.60;1.00
13744;DHT22;6943;52.368;9.966;2023-04-25T03:23:23;7.60;1.00
13744;DHT22;6943;52.368;9.966;2023-04-25T03:25:48;7.50;1.00
13744;DHT22;6943;52.368;9.966;2023-04-25T03:28:14;7.50;1.00
13744;DHT22;6943;52.368;9.966;2023-04-25T03:30:40;7.50;1.00
13744;DHT22;6943;52.368;9.966;2023-04-25T03:33:05;7.50;1.00
13744;DHT22;6943;52.368;9.966;2023-04-25T03:35:30;7.50;1.00
13744;DHT22;6943;52.368;9.966;2023-04-25T03:37:56;7.40;99.90
13744;DHT22;6943;52.368;9.966;2023-04-25T03:40:21;7.40;99.90
13744;DHT22;6943;52.368;9.966;2023-04-25T03:42:47;7.40;99.90
13744;DHT22;6943;52.368;9.966;2023-04-25T03:45:12;7.30;99.90
13744;DHT22;6943;52.368;9.966;2023-04-25T03:47:38;7.30;99.90
13744;DHT22;6943;52.368;9.966;2023-04-25T03:50:03;7.30;1.00
13744;DHT22;6943;52.368;9.966;2023-04-25T03:52:29;7.30;1.00
13744;DHT22;6943;52.368;9.966;2023-04-25T03:54:55;7.30;1.00
13744;DHT22;6943;52.368;9.966;2023-04-25T03:57:20;7.30;1.00
13744;DHT22;6943;52.368;9.966;2023-04-25T03:59:45;7.30;1.00
13744;DHT22;6943;52.368;9.966;2023-04-25T04:02:11;7.30;1.00
13744;DHT22;6943;52.368;9.966;2023-04-25T04:04:36;7.30;99.90
13744;DHT22;6943;52.368;9.966;2023-04-25T04:07:02;7.30;99.90
13744;DHT22;6943;52.368;9.966;2023-04-25T04:09:28;7.30;99.90
13744;DHT22;6943;52.368;9.966;2023-04-25T04:11:53;7.30;99.90
13744;DHT22;6943;52.368;9.966;2023-04-25T04:14:19;7.30;99.90
13744;DHT22;6943;52.368;9.966;2023-04-25T04:16:44;7.30;99.90
13744;DHT22;6943;52.368;9.966;2023-04-25T04:19:10;7.30;85.10
13744;DHT22;6943;52.368;9.966;2023-04-25T04:21:35;7.30;9.30
13744;DHT22;6943;52.368;9.966;2023-04-25T04:24:01;7.30;1.00
13744;DHT22;6943;52.368;9.966;2023-04-25T04:26:27;7.30;1.00
13744;DHT22;6943;52.368;9.966;2023-04-25T04:28:52;7.30;1.00
13744;DHT22;6943;52.368;9.966;2023-04-25T04:31:20;7.30;1.00
13744;DHT22;6943;52.368;9.966;2023-04-25T04:33:45;7.30;99.90
13744;DHT22;6943;52.368;9.966;2023-04-25T04:36:11;7.30;99.90
13744;DHT22;6943;52.368;9.966;2023-04-25T04:38:37;7.30;99.90
13744;DHT22;6943;52.368;9.966;2023-04-25T04:41:03;7.30;99.90
13744;DHT22;6943;52.368;9.966;2023-04-25T04:43:28;7.30;99.90
13744;DHT22;6943;52.368;9.966;2023-04-25T04:45:55;7.40;99.90
13744;DHT22;6943;52.368;9.966;2023-04-25T04:48:21;7.40;1.00
13744;DHT22;6943;52.368;9.966;2023-04-25T04:50:47;7.50;1.00
13744;DHT22;6943;52.368;9.966;2023-04-25T04:53:12;7.60;1.00
13744;DHT22;6943;52.368;9.966;2023-04-25T04:55:38;7.70;1.00
13744;DHT22;6943;52.368;9.966;2023-04-25T04:58:04;7.80;1.00
13744;DHT22;6943;52.368;9.966;2023-04-25T05:00:29;7.90;1.00
13744;DHT22;6943;52.368;9.966;2023-04-25T05:02:56;7.90;99.90
13744;DHT22;6943;52.368;9.966;2023-04-25T05:05:21;8.00;99.90
13744;DHT22;6943;52.368;9.966;2023-04-25T05:07:47;8.10;1.00
13744;DHT22;6943;52.368;9.966;2023-04-25T05:10:12;8.10;1.00
13744;DHT22;6943;52.368;9.966;2023-04-25T05:12:38;8.20;1.00
13744;DHT22;6943;52.368;9.966;2023-04-25T05:15:03;8.20;1.00
13744;DHT22;6943;52.368;9.966;2023-04-25T05:17:29;8.20;1.00
13744;DHT22;6943;52.368;9.966;2023-04-25T05:19:55;8.30;1.00
13744;DHT22;6943;52.368;9.966;2023-04-25T05:22:20;8.40;1.00
13744;DHT22;6943;52.368;9.966;2023-04-25T05:24:46;8.70;1.00
13744;DHT22;6943;52.368;9.966;2023-04-25T05:27:11;8.90;99.90
13744;DHT22;6943;52.368;9.966;2023-04-25T05:29:36;9.20;99.90
13744;DHT22;6943;52.368;9.966;2023-04-25T05:32:02;9.80;1.00
13744;DHT22;6943;52.368;9.966;2023-04-25T05:34:28;10.90;1.00
13744;DHT22;6943;52.368;9.966;2023-04-25T05:36:53;13.10;99.90
13744;DHT22;6943;52.368;9.966;2023-04-25T05:39:19;15.60;99.90
13744;DHT22;6943;52.368;9.966;2023-04-25T05:41:44;18.00;99.90
13744;DHT22;6943;52.368;9.966;2023-04-25T05:44:10;20.20;99.90
13744;DHT22;6943;52.368;9.966;2023-04-25T05:46:35;21.50;99.90
13744;DHT22;6943;52.368;9.966;2023-04-25T05:49:01;20.30;99.90
13744;DHT22;6943;52.368;9.966;2023-04-25T05:51:26;19.40;99.90
13744;DHT22;6943;52.368;9.966;2023-04-25T05:53:52;20.60;99.90
13744;DHT22;6943;52.368;9.966;2023-04-25T05:56:18;20.60;99.90
13744;DHT22;6943;52.368;9.966;2023-04-25T05:58:43;19.60;99.90
13744;DHT22;6943;52.368;9.966;2023-04-25T06:01:09;18.30;99.90
13744;DHT22;6943;52.368;9.966;2023-04-25T06:03:35;17.70;99.90
13744;DHT22;6943;52.368;9.966;2023-04-25T06:06:00;16.70;99.90
13744;DHT22;6943;52.368;9.966;2023-04-25T06:08:26;15.10;99.90
13744;DHT22;6943;52.368;9.966;2023-04-25T06:10:51;14.30;99.90
13744;DHT22;6943;52.368;9.966;2023-04-25T06:13:17;13.70;99.90
13744;DHT22;6943;52.368;9.966;2023-04-25T06:15:42;13.70;99.90
13744;DHT22;6943;52.368;9.966;2023-04-25T06:18:08;14.00;99.90
13744;DHT22;6943;52.368;9.966;2023-04-25T06:20:33;13.90;99.90
13744;DHT22;6943;52.368;9.966;2023-04-25T06:22:59;13.80;99.90
13744;DHT22;6943;52.368;9.966;2023-04-25T06:25:24;14.30;99.90
13744;DHT22;6943;52.368;9.966;2023-04-25T06:27:50;14.10;99.90
13744;DHT22;6943;52.368;9.966;2023-04-25T06:30:15;13.90;99.90
13744;DHT22;6943;52.368;9.966;2023-04-25T06:32:43;13.60;99.90
13744;DHT22;6943;52.368;9.966;2023-04-25T06:35:09;13.90;99.90
13744;DHT22;6943;52.368;9.966;2023-04-25T06:37:35;14.20;99.90
13744;DHT22;6943;52.368;9.966;2023-04-25T06:40:00;15.40;99.90
13744;DHT22;6943;52.368;9.966;2023-04-25T06:42:26;18.30;99.90
13744;DHT22;6943;52.368;9.966;2023-04-25T06:44:51;19.90;99.90
13744;DHT22;6943;52.368;9.966;2023-04-25T06:47:17;23.30;99.90
13744;DHT22;6943;52.368;9.966;2023-04-25T06:49:42;24.80;99.90
13744;DHT22;6943;52.368;9.966;2023-04-25T06:52:08;26.20;99.90
13744;DHT22;6943;52.368;9.966;2023-04-25T06:54:33;27.10;99.90
13744;DHT22;6943;52.368;9.966;2023-04-25T06:56:59;24.00;99.90
13744;DHT22;6943;52.368;9.966;2023-04-25T06:59:26;21.80;99.90
13744;DHT22;6943;52.368;9.966;2023-04-25T07:01:51;19.90;99.90
13744;DHT22;6943;52.368;9.966;2023-04-25T07:04:17;19.10;99.90
13744;DHT22;6943;52.368;9.966;2023-04-25T07:06:42;18.80;99.90
13744;DHT22;6943;52.368;9.966;2023-04-25T07:09:09;18.90;99.90
13744;DHT22;6943;52.368;9.966;2023-04-25T07:11:37;19.30;99.90
13744;DHT22;6943;52.368;9.966;2023-04-25T07:14:03;18.70;99.90
13744;DHT22;6943;52.368;9.966;2023-04-25T07:16:29;18.20;99.90
13744;DHT22;6943;52.368;9.966;2023-04-25T07:18:55;19.00;99.90
13744;DHT22;6943;52.368;9.966;2023-04-25T07:21:20;20.00;99.90
13744;DHT22;6943;52.368;9.966;2023-04-25T07:23:46;19.20;99.90
13744;DHT22;6943;52.368;9.966;2023-04-25T07:26:12;16.90;99.90
13744;DHT22;6943;52.368;9.966;2023-04-25T07:28:38;15.80;99.90
13744;DHT22;6943;52.368;9.966;2023-04-25T07:31:03;16.30;99.90
13744;DHT22;6943;52.368;9.966;2023-04-25T07:33:29;19.70;99.90
13744;DHT22;6943;52.368;9.966;2023-04-25T07:35:55;18.50;99.90
13744;DHT22;6943;52.368;9.966;2023-04-25T07:38:21;17.10;99.90
13744;DHT22;6943;52.368;9.966;2023-04-25T07:40:48;15.60;99.90
13744;DHT22;6943;52.368;9.966;2023-04-25T07:43:13;14.40;99.90
13744;DHT22;6943;52.368;9.966;2023-04-25T07:45:42;13.40;99.90
13744;DHT22;6943;52.368;9.966;2023-04-25T07:48:08;12.60;99.90
13744;DHT22;6943;52.368;9.966;2023-04-25T07:50:33;12.00;99.90
13744;DHT22;6943;52.368;9.966;2023-04-25T07:52:58;11.60;99.90
13744;DHT22;6943;52.368;9.966;2023-04-25T07:55:24;11.50;99.90
13744;DHT22;6943;52.368;9.966;2023-04-25T07:57:49;11.60;99.90
13744;DHT22;6943;52.368;9.966;2023-04-25T08:00:15;12.10;99.90
13744;DHT22;6943;52.368;9.966;2023-04-25T08:02:41;12.50;99.90
13744;DHT22;6943;52.368;9.966;2023-04-25T08:05:07;12.90;99.90
13744;DHT22;6943;52.368;9.966;2023-04-25T08:07:33;13.20;99.90
13744;DHT22;6943;52.368;9.966;2023-04-25T08:09:59;13.40;99.90
13744;DHT22;6943;52.368;9.966;2023-04-25T08:12:24;13.50;99.90
13744;DHT22;6943;52.368;9.966;2023-04-25T08:14:50;13.70;99.90
13744;DHT22;6943;52.368;9.966;2023-04-25T08:17:15;13.70;99.90
13744;DHT22;6943;52.368;9.966;2023-04-25T08:19:41;14.20;99.90
13744;DHT22;6943;52.368;9.966;2023-04-25T08:22:06;14.40;99.90
13744;DHT22;6943;52.368;9.966;2023-04-25T08:24:32;14.40;99.90
13744;DHT22;6943;52.368;9.966;2023-04-25T08:26:58;14.80;99.90
13744;DHT22;6943;52.368;9.966;2023-04-25T08:29:24;14.80;99.90
13744;DHT22;6943;52.368;9.966;2023-04-25T08:31:51;14.90;99.90
13744;DHT22;6943;52.368;9.966;2023-04-25T08:34:18;15.90;99.90
13744;DHT22;6943;52.368;9.966;2023-04-25T08:36:44;17.80;99.90
13744;DHT22;6943;52.368;9.966;2023-04-25T08:39:10;19.20;99.90
13744;DHT22;6943;52.368;9.966;2023-04-25T08:41:36;20.80;99.90
13744;DHT22;6943;52.368;9.966;2023-04-25T08:44:03;21.90;99.90
13744;DHT22;6943;52.368;9.966;2023-04-25T08:46:30;22.40;99.90
13744;DHT22;6943;52.368;9.966;2023-04-25T08:49:00;23.20;99.90
13744;DHT22;6943;52.368;9.966;2023-04-25T08:51:26;24.20;99.90
13744;DHT22;6943;52.368;9.966;2023-04-25T08:53:53;23.90;99.90
13744;DHT22;6943;52.368;9.966;2023-04-25T08:56:19;23.30;99.90
13744;DHT22;6943;52.368;9.966;2023-04-25T08:58:48;20.80;99.90
13744;DHT22;6943;52.368;9.966;2023-04-25T09:01:15;18.20;99.90
13744;DHT22;6943;52.368;9.966;2023-04-25T09:03:40;16.20;99.90
13744;DHT22;6943;52.368;9.966;2023-04-25T09:06:07;15.00;99.90
13744;DHT22;6943;52.368;9.966;2023-04-25T09:08:33;14.20;99.90
13744;DHT22;6943;52.368;9.966;2023-04-25T09:10:59;13.40;99.90
13744;DHT22;6943;52.368;9.966;2023-04-25T09:13:28;12.60;99.90
13744;DHT22;6943;52.368;9.966;2023-04-25T09:15:56;12.50;99.90
13744;DHT22;6943;52.368;9.966;2023-04-25T09:18:32;12.60;99.90
13744;DHT22;6943;52.368;9.966;2023-04-25T09:21:08;12.80;99.90
13744;DHT22;6943;52.368;9.966;2023-04-25T09:26:09;13.40;99.90
13744;DHT22;6943;52.368;9.966;2023-04-25T09:28:35;13.80;99.90
13744;DHT22;6943;52.368;9.966;2023-04-25T09:31:01;13.90;99.90
13744;DHT22;6943;52.368;9.966;2023-04-25T09:33:31;13.90;99.90
13744;DHT22;6943;52.368;9.966;2023-04-25T09:36:05;13.90;99.90
13744;DHT22;6943;52.368;9.966;2023-04-25T09:38:36;13.80;99.90
13744;DHT22;6943;52.368;9.966;2023-04-25T09:41:05;13.70;99.90
13744;DHT22;6943;52.368;9.966;2023-04-25T09:43:31;13.50;99.90
13744;DHT22;6943;52.368;9.966;2023-04-25T09:45:56;13.40;99.90
13744;DHT22;6943;52.368;9.966;2023-04-25T09:48:26;13.30;99.90
13744;DHT22;6943;52.368;9.966;2023-04-25T09:51:09;13.20;99.90
13744;DHT22;6943;52.368;9.966;2023-04-25T09:53:37;13.50;99.90
13744;DHT22;6943;52.368;9.966;2023-04-25T09:56:05;13.60;99.90
13744;DHT22;6943;52.368;9.966;2023-04-25T09:58:32;14.10;99.90
13744;DHT22;6943;52.368;9.966;2023-04-25T10:01:04;14.20;99.90
13744;DHT22;6943;52.368;9.966;2023-04-25T10:03:32;14.40;99.90
13744;DHT22;6943;52.368;9.966;2023-04-25T10:06:02;14.70;99.90
13744;DHT22;6943;52.368;9.966;2023-04-25T10:08:32;14.90;99.90
13744;DHT22;6943;52.368;9.966;2023-04-25T10:11:03;14.90;99.90
13744;DHT22;6943;52.368;9.966;2023-04-25T10:13:29;14.50;99.90
13744;DHT22;6943;52.368;9.966;2023-04-25T10:15:57;13.50;99.90
13744;DHT22;6943;52.368;9.966;2023-04-25T10:18:27;13.30;99.90
13744;DHT22;6943;52.368;9.966;2023-04-25T10:20:58;13.10;99.90
13744;DHT22;6943;52.368;9.966;2023-04-25T10:23:25;13.00;99.90
13744;DHT22;6943;52.368;9.966;2023-04-25T10:25:52;13.10;99.90
13744;DHT22;6943;52.368;9.966;2023-04-25T10:28:18;13.30;99.90
13744;DHT22;6943;52.368;9.966;2023-04-25T10:31:02;13.40;99.90
13744;DHT22;6943;52.368;9.966;2023-04-25T10:33:38;13.10;99.90
13744;DHT22;6943;52.368;9.966;2023-04-25T10:36:12;13.00;99.90
13744;DHT22;6943;52.368;9.966;2023-04-25T10:38:39;12.60;99.90
13744;DHT22;6943;52.368;9.966;2023-04-25T10:41:06;12.10;99.90
13744;DHT22;6943;52.368;9.966;2023-04-25T10:43:35;11.80;99.90
13744;DHT22;6943;52.368;9.966;2023-04-25T10:46:02;11.70;99.90
13744;DHT22;6943;52.368;9.966;2023-04-25T10:48:31;12.30;99.90
13744;DHT22;6943;52.368;9.966;2023-04-25T10:51:20;11.40;99.90
13744;DHT22;6943;52.368;9.966;2023-04-25T10:53:48;11.40;99.90
13744;DHT22;6943;52.368;9.966;2023-04-25T10:56:28;11.60;99.90
13744;DHT22;6943;52.368;9.966;2023-04-25T10:59:17;12.00;99.90
13744;DHT22;6943;52.368;9.966;2023-04-25T11:01:45;11.90;99.90
13744;DHT22;6943;52.368;9.966;2023-04-25T11:04:32;11.90;99.90
13744;DHT22;6943;52.368;9.966;2023-04-25T11:09:41;12.10;99.90
13744;DHT22;6943;52.368;9.966;2023-04-25T11:12:09;12.50;99.90
13744;DHT22;6943;52.368;9.966;2023-04-25T11:14:35;12.80;99.90
13744;DHT22;6943;52.368;9.966;2023-04-25T11:17:00;13.20;99.90
13744;DHT22;6943;52.368;9.966;2023-04-25T11:19:28;13.40;99.90
13744;DHT22;6943;52.368;9.966;2023-04-25T11:21:58;13.80;99.90
13744;DHT22;6943;52.368;9.966;2023-04-25T11:24:31;13.80;99.90
13744;DHT22;6943;52.368;9.966;2023-04-25T11:26:58;13.80;99.90
13744;DHT22;6943;52.368;9.966;2023-04-25T11:29:31;13.90;99.90
13744;DHT22;6943;52.368;9.966;2023-04-25T11:31:57;13.90;99.90
13744;DHT22;6943;52.368;9.966;2023-04-25T11:34:24;14.00;99.90
13744;DHT22;6943;52.368;9.966;2023-04-25T11:36:50;13.90;99.90
13744;DHT22;6943;52.368;9.966;2023-04-25T11:39:20;13.90;99.90
13744;DHT22;6943;52.368;9.966;2023-04-25T11:41:46;13.60;99.90
13744;DHT22;6943;52.368;9.966;2023-04-25T11:44:15;13.50;99.90
13744;DHT22;6943;52.368;9.966;2023-04-25T11:46:42;13.50;99.90
13744;DHT22;6943;52.368;9.966;2023-04-25T11:49:07;13.80;99.90
13744;DHT22;6943;52.368;9.966;2023-04-25T11:51:44;13.80;99.90
13744;DHT22;6943;52.368;9.966;2023-04-25T11:54:10;13.70;99.90
13744;DHT22;6943;52.368;9.966;2023-04-25T11:56:37;13.20;99.90
13744;DHT22;6943;52.368;9.966;2023-04-25T11:59:04;12.50;99.90
13744;DHT22;6943;52.368;9.966;2023-04-25T12:03:57;11.00;99.90
13744;DHT22;6943;52.368;9.966;2023-04-25T12:06:27;10.60;99.90
13744;DHT22;6943;52.368;9.966;2023-04-25T12:09:04;10.50;99.90
13744;DHT22;6943;52.368;9.966;2023-04-25T12:11:35;10.30;99.90
13744;DHT22;6943;52.368;9.966;2023-04-25T12:16:43;10.50;99.90
13744;DHT22;6943;52.368;9.966;2023-04-25T12:19:09;10.80;99.90
13744;DHT22;6943;52.368;9.966;2023-04-25T12:21:35;11.20;99.90
13744;DHT22;6943;52.368;9.966;2023-04-25T12:24:14;11.70;99.90
13744;DHT22;6943;52.368;9.966;2023-04-25T12:27:00;12.10;99.90
13744;DHT22;6943;52.368;9.966;2023-04-25T12:29:29;12.30;99.90
13744;DHT22;6943;52.368;9.966;2023-04-25T12:31:55;12.50;99.90
13744;DHT22;6943;52.368;9.966;2023-04-25T12:34:22;12.70;99.90
13744;DHT22;6943;52.368;9.966;2023-04-25T12:36:48;12.60;99.90
13744;DHT22;6943;52.368;9.966;2023-04-25T12:39:21;12.60;99.90
13744;DHT22;6943;52.368;9.966;2023-04-25T12:41:50;12.90;99.90
13744;DHT22;6943;52.368;9.966;2023-04-25T12:44:17;12.90;99.90
13744;DHT22;6943;52.368;9.966;2023-04-25T12:46:42;12.90;99.90
13744;DHT22;6943;52.368;9.966;2023-04-25T12:49:08;13.20;99.90
13744;DHT22;6943;52.368;9.966;2023-04-25T12:51:35;13.60;99.90
13744;DHT22;6943;52.368;9.966;2023-04-25T12:54:01;13.60;99.90
13744;DHT22;6943;52.368;9.966;2023-04-25T12:56:28;13.20;99.90
13744;DHT22;6943;52.368;9.966;2023-04-25T12:58:54;12.50;99.90
13744;DHT22;6943;52.368;9.966;2023-04-25T13:01:20;11.80;99.90
13744;DHT22;6943;52.368;9.966;2023-04-25T13:03:46;11.30;99.90
13744;DHT22;6943;52.368;9.966;2023-04-25T13:06:13;10.80;99.90
13744;DHT22;6943;52.368;9.966;2023-04-25T13:08:39;10.60;99.90
13744;DHT22;6943;52.368;9.966;2023-04-25T13:11:06;10.70;99.90
13744;DHT22;6943;52.368;9.966;2023-04-25T13:13:32;10.80;99.90
13744;DHT22;6943;52.368;9.966;2023-04-25T13:15:58;11.00;99.90
13744;DHT22;6943;52.368;9.966;2023-04-25T13:18:23;11.40;99.90
13744;DHT22;6943;52.368;9.966;2023-04-25T13:20:52;11.70;99.90
13744;DHT22;6943;52.368;9.966;2023-04-25T13:23:19;11.90;99.90
13744;DHT22;6943;52.368;9.966;2023-04-25T13:25:45;12.10;99.90
13744;DHT22;6943;52.368;9.966;2023-04-25T13:28:10;11.80;99.90
13744;DHT22;6943;52.368;9.966;2023-04-25T13:30:36;11.60;99.90
13744;DHT22;6943;52.368;9.966;2023-04-25T13:33:02;11.60;99.90
13744;DHT22;6943;52.368;9.966;2023-04-25T13:35:29;11.60;99.90
13744;DHT22;6943;52.368;9.966;2023-04-25T13:37:55;11.70;99.90
13744;DHT22;6943;52.368;9.966;2023-04-25T13:40:20;11.60;99.90
13744;DHT22;6943;52.368;9.966;2023-04-25T13:42:46;11.40;99.90
13744;DHT22;6943;52.368;9.966;2023-04-25T13:45:12;11.30;99.90
13744;DHT22;6943;52.368;9.966;2023-04-25T13:47:37;11.20;99.90
13744;DHT22;6943;52.368;9.966;2023-04-25T13:50:04;11.30;99.90
13744;DHT22;6943;52.368;9.966;2023-04-25T13:52:31;11.40;99.90
13744;DHT22;6943;52.368;9.966;2023-04-25T13:54:57;11.70;99.90
13744;DHT22;6943;52.368;9.966;2023-04-25T13:57:23;11.90;99.90
13744;DHT22;6943;52.368;9.966;2023-04-25T13:59:48;12.00;99.90
13744;DHT22;6943;52.368;9.966;2023-04-25T14:02:14;12.20;99.90
13744;DHT22;6943;52.368;9.966;2023-04-25T14:04:40;12.50;99.90
13744;DHT22;6943;52.368;9.966;2023-04-25T14:07:06;12.80;99.90
13744;DHT22;6943;52.368;9.966;2023-04-25T14:09:31;12.80;99.90
13744;DHT22;6943;52.368;9.966;2023-04-25T14:11:57;12.70;99.90
13744;DHT22;6943;52.368;9.966;2023-04-25T14:14:23;12.50;99.90
13744;DHT22;6943;52.368;9.966;2023-04-25T14:16:49;12.10;99.90
13744;DHT22;6943;52.368;9.966;2023-04-25T14:19:15;11.30;99.90
13744;DHT22;6943;52.368;9.966;2023-04-25T14:21:41;10.80;99.90
13744;DHT22;6943;52.368;9.966;2023-04-25T14:24:09;10.30;99.90
13744;DHT22;6943;52.368;9.966;2023-04-25T14:26:36;10.10;99.90
13744;DHT22;6943;52.368;9.966;2023-04-25T14:29:02;10.00;99.90
13744;DHT22;6943;52.368;9.966;2023-04-25T14:31:28;10.20;99.90
13744;DHT22;6943;52.368;9.966;2023-04-25T14:33:53;10.50;1.00
13744;DHT22;6943;52.368;9.966;2023-04-25T14:36:19;11.10;99.90
13744;DHT22;6943;52.368;9.966;2023-04-25T14:38:44;11.60;99.90
13744;DHT22;6943;52.368;9.966;2023-04-25T14:41:10;12.70;99.90
13744;DHT22;6943;52.368;9.966;2023-04-25T14:43:36;12.80;99.90
13744;DHT22;6943;52.368;9.966;2023-04-25T14:46:02;12.90;99.90
13744;DHT22;6943;52.368;9.966;2023-04-25T14:48:28;12.90;99.90
13744;DHT22;6943;52.368;9.966;2023-04-25T14:50:54;12.70;99.90
13744;DHT22;6943;52.368;9.966;2023-04-25T14:53:22;12.60;99.90
13744;DHT22;6943;52.368;9.966;2023-04-25T14:55:47;12.50;99.90
13744;DHT22;6943;52.368;9.966;2023-04-25T14:58:14;12.40;99.90
13744;DHT22;6943;52.368;9.966;2023-04-25T15:00:39;12.30;99.90
13744;DHT22;6943;52.368;9.966;2023-04-25T15:03:05;12.20;99.90
13744;DHT22;6943;52.368;9.966;2023-04-25T15:05:32;12.20;99.90
13744;DHT22;6943;52.368;9.966;2023-04-25T15:07:58;12.40;99.90
13744;DHT22;6943;52.368;9.966;2023-04-25T15:10:23;12.60;99.90
13744;DHT22;6943;52.368;9.966;2023-04-25T15:12:49;12.00;99.90
13744;DHT22;6943;52.368;9.966;2023-04-25T15:15:15;10.40;99.90
13744;DHT22;6943;52.368;9.966;2023-04-25T15:17:41;9.90;99.90
13744;DHT22;6943;52.368;9.966;2023-04-25T15:20:08;10.00;99.90
13744;DHT22;6943;52.368;9.966;2023-04-25T15:22:39;10.00;1.00
13744;DHT22;6943;52.368;9.966;2023-04-25T15:25:06;10.10;1.00
13744;DHT22;6943;52.368;9.966;2023-04-25T15:27:33;10.20;1.00
13744;DHT22;6943;52.368;9.966;2023-04-25T15:29:59;10.50;1.00
13744;DHT22;6943;52.368;9.966;2023-04-25T15:32:25;10.70;1.00
13744;DHT22;6943;52.368;9.966;2023-04-25T15:34:50;10.80;1.00
13744;DHT22;6943;52.368;9.966;2023-04-25T15:37:16;10.80;1.00
13744;DHT22;6943;52.368;9.966;2023-04-25T15:39:43;10.70;1.00
13744;DHT22;6943;52.368;9.966;2023-04-25T15:42:08;10.50;1.00
13744;DHT22;6943;52.368;9.966;2023-04-25T15:44:34;10.40;1.00
13744;DHT22;6943;52.368;9.966;2023-04-25T15:46:59;10.50;99.90
13744;DHT22;6943;52.368;9.966;2023-04-25T15:49:25;10.80;99.90
13744;DHT22;6943;52.368;9.966;2023-04-25T15:51:51;11.20;99.90
13744;DHT22;6943;52.368;9.966;2023-04-25T15:54:17;11.60;99.90
13744;DHT22;6943;52.368;9.966;2023-04-25T15:56:42;11.80;99.90
13744;DHT22;6943;52.368;9.966;2023-04-25T15:59:09;12.00;99.90
13744;DHT22;6943;52.368;9.966;2023-04-25T16:01:34;12.10;99.90